sensor_id;sensor_type;location;lat;lon;timestamp;P1;durP1;ratioP1;P2;durP2;ratioP2
8407;SDS011;4241;48.452;9.216;2023-07-13T00:01:27;486.67;;;246.37;;
8407;SDS011;4241;48.452;9.216;2023-07-13T00:03:54;486.33;;;244.60;;
8407;SDS011;4241;48.452;9.216;2023-07-13T00:06:21;485.23;;;244.13;;
8407;SDS011;4241;48.452;9.216;2023-07-13T00:08:48;485.43;;;242.93;;
8407;SDS011;4241;48.452;9.216;2023-07-13T00:11:16;484.60;;;239.10;;
8407;SDS011;4241;48.452;9.216;2023-07-13T00:13:43;486.40;;;243.10;;
8407;SDS011;4241;48.452;9.216;2023-07-13T00:16:11;486.63;;;244.00;;
8407;SDS011;4241;48.452;9.216;2023-07-13T00:18:39;486.03;;;242.53;;
8407;SDS011;4241;48.452;9.216;2023-07-13T00:21:06;486.13;;;243.93;;
8407;SDS011;4241;48.452;9.216;2023-07-13T00:23:33;485.23;;;240.47;;
8407;SDS011;4241;48.452;9.216;2023-07-13T00:26:00;484.67;;;238.07;;
8407;SDS011;4241;48.452;9.216;2023-07-13T00:28:28;485.37;;;239.73;;
8407;SDS011;4241;48.452;9.216;2023-07-13T00:30:55;485.53;;;240.30;;
8407;SDS011;4241;48.452;9.216;2023-07-13T00:33:22;485.03;;;239.90;;
8407;SDS011;4241;48.452;9.216;2023-07-13T00:35:49;483.13;;;232.33;;
8407;SDS011;4241;48.452;9.216;2023-07-13T00:38:16;481.17;;;230.77;;
8407;SDS011;4241;48.452;9.216;2023-07-13T00:40:43;482.97;;;233.73;;
8407;SDS011;4241;48.452;9.216;2023-07-13T00:43:11;484.07;;;234.23;;
8407;SDS011;4241;48.452;9.216;2023-07-13T00:48:38;485.70;;;235.47;;
8407;SDS011;4241;48.452;9.216;2023-07-13T00:51:06;484.53;;;233.07;;
8407;SDS011;4241;48.452;9.216;2023-07-13T00:53:33;485.63;;;235.90;;
8407;SDS011;4241;48.452;9.216;2023-07-13T00:56:00;485.20;;;237.37;;
8407;SDS011;4241;48.452;9.216;2023-07-13T00:58:29;485.87;;;239.93;;
8407;SDS011;4241;48.452;9.216;2023-07-13T01:00:59;485.37;;;237.83;;
8407;SDS011;4241;48.452;9.216;2023-07-13T01:03:27;485.07;;;236.00;;
8407;SDS011;4241;48.452;9.216;2023-07-13T01:05:54;485.07;;;233.53;;
8407;SDS011;4241;48.452;9.216;2023-07-13T01:08:21;483.60;;;234.63;;
8407;SDS011;4241;48.452;9.216;2023-07-13T01:10:52;485.77;;;236.87;;
8407;SDS011;4241;48.452;9.216;2023-07-13T01:13:20;483.77;;;233.17;;
8407;SDS011;4241;48.452;9.216;2023-07-13T01:15:47;483.83;;;232.07;;
8407;SDS011;4241;48.452;9.216;2023-07-13T01:18:17;484.37;;;232.17;;
8407;SDS011;4241;48.452;9.216;2023-07-13T01:20:50;481.87;;;225.57;;
8407;SDS011;4241;48.452;9.216;2023-07-13T01:23:17;485.13;;;233.07;;
8407;SDS011;4241;48.452;9.216;2023-07-13T01:25:45;482.90;;;229.90;;
8407;SDS011;4241;48.452;9.216;2023-07-13T01:28:12;481.23;;;225.23;;
8407;SDS011;4241;48.452;9.216;2023-07-13T01:30:41;483.17;;;230.17;;
8407;SDS011;4241;48.452;9.216;2023-07-13T01:33:10;480.73;;;225.30;;
8407;SDS011;4241;48.452;9.216;2023-07-13T01:35:39;486.40;;;229.40;;
8407;SDS011;4241;48.452;9.216;2023-07-13T01:38:08;482.40;;;226.77;;
8407;SDS011;4241;48.452;9.216;2023-07-13T01:40:36;483.13;;;227.43;;
8407;SDS011;4241;48.452;9.216;2023-07-13T01:43:04;481.80;;;223.93;;
8407;SDS011;4241;48.452;9.216;2023-07-13T01:45:31;487.47;;;230.20;;
8407;SDS011;4241;48.452;9.216;2023-07-13T01:47:58;480.23;;;221.67;;
8407;SDS011;4241;48.452;9.216;2023-07-13T01:50:25;481.53;;;223.10;;
8407;SDS011;4241;48.452;9.216;2023-07-13T01:52:52;482.23;;;223.47;;
8407;SDS011;4241;48.452;9.216;2023-07-13T01:55:23;480.70;;;222.60;;
8407;SDS011;4241;48.452;9.216;2023-07-13T01:57:50;482.23;;;226.07;;
8407;SDS011;4241;48.452;9.216;2023-07-13T02:00:17;480.27;;;219.17;;
8407;SDS011;4241;48.452;9.216;2023-07-13T02:02:44;481.60;;;222.43;;
8407;SDS011;4241;48.452;9.216;2023-07-13T02:05:14;479.93;;;218.50;;
8407;SDS011;4241;48.452;9.216;2023-07-13T02:07:44;479.07;;;215.43;;
8407;SDS011;4241;48.452;9.216;2023-07-13T02:10:11;481.50;;;219.50;;
8407;SDS011;4241;48.452;9.216;2023-07-13T02:12:39;480.73;;;217.40;;
8407;SDS011;4241;48.452;9.216;2023-07-13T02:15:07;483.53;;;219.53;;
8407;SDS011;4241;48.452;9.216;2023-07-13T02:17:34;480.43;;;216.37;;
8407;SDS011;4241;48.452;9.216;2023-07-13T02:20:02;481.50;;;219.43;;
8407;SDS011;4241;48.452;9.216;2023-07-13T02:22:29;481.77;;;218.57;;
8407;SDS011;4241;48.452;9.216;2023-07-13T02:24:56;482.30;;;221.57;;
8407;SDS011;4241;48.452;9.216;2023-07-13T02:27:23;481.27;;;218.07;;
8407;SDS011;4241;48.452;9.216;2023-07-13T02:29:52;479.03;;;215.37;;
8407;SDS011;4241;48.452;9.216;2023-07-13T02:32:18;479.60;;;214.37;;
8407;SDS011;4241;48.452;9.216;2023-07-13T02:34:45;481.53;;;216.17;;
8407;SDS011;4241;48.452;9.216;2023-07-13T02:37:12;479.07;;;214.43;;
8407;SDS011;4241;48.452;9.216;2023-07-13T02:39:39;482.77;;;217.30;;
8407;SDS011;4241;48.452;9.216;2023-07-13T02:42:06;480.97;;;214.07;;
8407;SDS011;4241;48.452;9.216;2023-07-13T02:44:33;478.87;;;207.83;;
8407;SDS011;4241;48.452;9.216;2023-07-13T02:47:01;477.20;;;209.50;;
8407;SDS011;4241;48.452;9.216;2023-07-13T02:49:28;479.30;;;211.43;;
8407;SDS011;4241;48.452;9.216;2023-07-13T02:51:55;480.30;;;211.90;;
8407;SDS011;4241;48.452;9.216;2023-07-13T02:54:21;478.37;;;206.57;;
8407;SDS011;4241;48.452;9.216;2023-07-13T02:56:48;480.07;;;208.77;;
8407;SDS011;4241;48.452;9.216;2023-07-13T02:59:15;477.93;;;206.33;;
8407;SDS011;4241;48.452;9.216;2023-07-13T03:01:42;477.67;;;207.47;;
8407;SDS011;4241;48.452;9.216;2023-07-13T03:04:10;477.77;;;206.67;;
8407;SDS011;4241;48.452;9.216;2023-07-13T03:06:37;478.70;;;207.53;;
8407;SDS011;4241;48.452;9.216;2023-07-13T03:09:04;476.90;;;204.10;;
8407;SDS011;4241;48.452;9.216;2023-07-13T03:11:31;478.30;;;207.97;;
8407;SDS011;4241;48.452;9.216;2023-07-13T03:13:58;477.87;;;209.03;;
8407;SDS011;4241;48.452;9.216;2023-07-13T03:16:25;476.53;;;204.43;;
8407;SDS011;4241;48.452;9.216;2023-07-13T03:18:51;476.40;;;202.07;;
8407;SDS011;4241;48.452;9.216;2023-07-13T03:21:20;475.50;;;199.30;;
8407;SDS011;4241;48.452;9.216;2023-07-13T03:23:47;475.90;;;203.90;;
8407;SDS011;4241;48.452;9.216;2023-07-13T03:26:14;475.60;;;200.40;;
8407;SDS011;4241;48.452;9.216;2023-07-13T03:28:43;475.33;;;199.27;;
8407;SDS011;4241;48.452;9.216;2023-07-13T03:31:11;475.10;;;199.73;;
8407;SDS011;4241;48.452;9.216;2023-07-13T03:33:39;477.30;;;203.80;;
8407;SDS011;4241;48.452;9.216;2023-07-13T03:36:07;475.17;;;200.47;;
8407;SDS011;4241;48.452;9.216;2023-07-13T03:38:45;475.47;;;198.87;;
8407;SDS011;4241;48.452;9.216;2023-07-13T03:41:13;474.03;;;197.53;;
8407;SDS011;4241;48.452;9.216;2023-07-13T03:43:40;476.73;;;201.67;;
8407;SDS011;4241;48.452;9.216;2023-07-13T03:46:07;477.43;;;201.30;;
8407;SDS011;4241;48.452;9.216;2023-07-13T03:48:34;476.43;;;197.33;;
8407;SDS011;4241;48.452;9.216;2023-07-13T03:51:01;473.47;;;193.67;;
8407;SDS011;4241;48.452;9.216;2023-07-13T03:53:30;472.33;;;193.03;;
8407;SDS011;4241;48.452;9.216;2023-07-13T03:55:59;471.93;;;194.30;;
8407;SDS011;4241;48.452;9.216;2023-07-13T03:58:27;473.13;;;196.17;;
8407;SDS011;4241;48.452;9.216;2023-07-13T04:00:55;474.73;;;196.40;;
8407;SDS011;4241;48.452;9.216;2023-07-13T04:03:23;476.10;;;197.83;;
8407;SDS011;4241;48.452;9.216;2023-07-13T04:05:53;473.83;;;196.33;;
8407;SDS011;4241;48.452;9.216;2023-07-13T04:08:23;475.33;;;197.67;;
8407;SDS011;4241;48.452;9.216;2023-07-13T04:10:50;475.33;;;198.80;;
8407;SDS011;4241;48.452;9.216;2023-07-13T04:13:18;474.63;;;195.73;;
8407;SDS011;4241;48.452;9.216;2023-07-13T04:15:45;473.50;;;196.03;;
8407;SDS011;4241;48.452;9.216;2023-07-13T04:18:12;476.87;;;199.60;;
8407;SDS011;4241;48.452;9.216;2023-07-13T04:20:39;476.33;;;201.10;;
8407;SDS011;4241;48.452;9.216;2023-07-13T04:23:05;476.73;;;200.00;;
8407;SDS011;4241;48.452;9.216;2023-07-13T04:25:32;478.87;;;201.30;;
8407;SDS011;4241;48.452;9.216;2023-07-13T04:27:59;472.43;;;192.17;;
8407;SDS011;4241;48.452;9.216;2023-07-13T04:30:28;474.00;;;193.33;;
8407;SDS011;4241;48.452;9.216;2023-07-13T04:32:55;475.57;;;197.13;;
8407;SDS011;4241;48.452;9.216;2023-07-13T04:35:22;478.97;;;202.10;;
8407;SDS011;4241;48.452;9.216;2023-07-13T04:37:49;474.77;;;199.20;;
8407;SDS011;4241;48.452;9.216;2023-07-13T04:40:16;476.17;;;199.80;;
8407;SDS011;4241;48.452;9.216;2023-07-13T04:42:44;475.17;;;199.20;;
8407;SDS011;4241;48.452;9.216;2023-07-13T04:45:11;475.30;;;199.53;;
8407;SDS011;4241;48.452;9.216;2023-07-13T04:47:40;478.03;;;202.80;;
8407;SDS011;4241;48.452;9.216;2023-07-13T04:50:07;479.63;;;203.40;;
8407;SDS011;4241;48.452;9.216;2023-07-13T04:52:35;474.97;;;198.73;;
8407;SDS011;4241;48.452;9.216;2023-07-13T04:55:03;476.77;;;200.27;;
8407;SDS011;4241;48.452;9.216;2023-07-13T04:57:30;473.90;;;196.50;;
8407;SDS011;4241;48.452;9.216;2023-07-13T04:59:57;473.47;;;197.30;;
8407;SDS011;4241;48.452;9.216;2023-07-13T05:02:26;476.97;;;202.67;;
8407;SDS011;4241;48.452;9.216;2023-07-13T05:04:54;477.47;;;203.50;;
8407;SDS011;4241;48.452;9.216;2023-07-13T05:07:21;482.13;;;209.60;;
8407;SDS011;4241;48.452;9.216;2023-07-13T05:09:48;475.30;;;198.37;;
8407;SDS011;4241;48.452;9.216;2023-07-13T05:12:15;475.77;;;200.97;;
8407;SDS011;4241;48.452;9.216;2023-07-13T05:14:42;476.83;;;201.90;;
8407;SDS011;4241;48.452;9.216;2023-07-13T05:17:09;476.27;;;202.47;;
8407;SDS011;4241;48.452;9.216;2023-07-13T05:19:36;476.37;;;203.73;;
8407;SDS011;4241;48.452;9.216;2023-07-13T05:22:04;478.70;;;206.17;;
8407;SDS011;4241;48.452;9.216;2023-07-13T05:24:31;475.83;;;202.47;;
8407;SDS011;4241;48.452;9.216;2023-07-13T05:26:58;477.17;;;204.60;;
8407;SDS011;4241;48.452;9.216;2023-07-13T05:29:25;479.30;;;207.27;;
8407;SDS011;4241;48.452;9.216;2023-07-13T05:31:52;477.27;;;204.03;;
8407;SDS011;4241;48.452;9.216;2023-07-13T05:34:19;477.80;;;206.80;;
8407;SDS011;4241;48.452;9.216;2023-07-13T05:36:46;478.83;;;207.27;;
8407;SDS011;4241;48.452;9.216;2023-07-13T05:39:15;478.47;;;206.97;;
8407;SDS011;4241;48.452;9.216;2023-07-13T05:41:42;478.80;;;210.20;;
8407;SDS011;4241;48.452;9.216;2023-07-13T05:44:09;478.43;;;205.47;;
8407;SDS011;4241;48.452;9.216;2023-07-13T05:46:36;479.87;;;209.67;;
8407;SDS011;4241;48.452;9.216;2023-07-13T05:49:03;489.30;;;219.70;;
8407;SDS011;4241;48.452;9.216;2023-07-13T05:51:30;484.03;;;214.77;;
8407;SDS011;4241;48.452;9.216;2023-07-13T05:53:57;478.53;;;209.47;;
8407;SDS011;4241;48.452;9.216;2023-07-13T05:56:25;480.63;;;210.80;;
8407;SDS011;4241;48.452;9.216;2023-07-13T05:58:52;480.33;;;212.70;;
8407;SDS011;4241;48.452;9.216;2023-07-13T06:01:19;480.77;;;215.03;;
8407;SDS011;4241;48.452;9.216;2023-07-13T06:03:47;481.47;;;214.03;;
8407;SDS011;4241;48.452;9.216;2023-07-13T06:06:14;483.33;;;220.60;;
8407;SDS011;4241;48.452;9.216;2023-07-13T06:08:41;484.47;;;226.70;;
8407;SDS011;4241;48.452;9.216;2023-07-13T06:11:10;482.23;;;220.47;;
8407;SDS011;4241;48.452;9.216;2023-07-13T06:13:42;483.03;;;223.47;;
8407;SDS011;4241;48.452;9.216;2023-07-13T06:16:09;485.57;;;228.10;;
8407;SDS011;4241;48.452;9.216;2023-07-13T06:18:36;483.63;;;228.03;;
8407;SDS011;4241;48.452;9.216;2023-07-13T06:21:07;486.70;;;231.47;;
8407;SDS011;4241;48.452;9.216;2023-07-13T06:23:35;484.10;;;228.07;;
8407;SDS011;4241;48.452;9.216;2023-07-13T06:26:02;484.20;;;229.23;;
8407;SDS011;4241;48.452;9.216;2023-07-13T06:28:29;491.53;;;239.03;;
8407;SDS011;4241;48.452;9.216;2023-07-13T06:30:59;486.00;;;232.93;;
8407;SDS011;4241;48.452;9.216;2023-07-13T06:33:26;485.97;;;234.93;;
8407;SDS011;4241;48.452;9.216;2023-07-13T06:35:53;505.93;;;254.60;;
8407;SDS011;4241;48.452;9.216;2023-07-13T06:38:20;488.23;;;244.63;;
8407;SDS011;4241;48.452;9.216;2023-07-13T06:40:48;489.37;;;245.90;;
8407;SDS011;4241;48.452;9.216;2023-07-13T06:43:14;488.07;;;245.37;;
8407;SDS011;4241;48.452;9.216;2023-07-13T06:45:43;490.00;;;246.03;;
8407;SDS011;4241;48.452;9.216;2023-07-13T06:48:13;488.43;;;247.27;;
8407;SDS011;4241;48.452;9.216;2023-07-13T06:50:40;490.37;;;249.73;;
8407;SDS011;4241;48.452;9.216;2023-07-13T06:53:07;490.00;;;250.60;;
8407;SDS011;4241;48.452;9.216;2023-07-13T06:55:34;496.87;;;262.27;;
8407;SDS011;4241;48.452;9.216;2023-07-13T06:58:01;491.93;;;259.13;;
8407;SDS011;4241;48.452;9.216;2023-07-13T07:00:28;494.07;;;258.07;;
8407;SDS011;4241;48.452;9.216;2023-07-13T07:02:55;492.13;;;257.70;;
8407;SDS011;4241;48.452;9.216;2023-07-13T07:05:23;490.43;;;257.47;;
8407;SDS011;4241;48.452;9.216;2023-07-13T07:07:50;490.23;;;255.27;;
8407;SDS011;4241;48.452;9.216;2023-07-13T07:10:17;492.77;;;262.93;;
8407;SDS011;4241;48.452;9.216;2023-07-13T07:12:45;490.53;;;257.70;;
8407;SDS011;4241;48.452;9.216;2023-07-13T07:15:12;493.63;;;265.30;;
8407;SDS011;4241;48.452;9.216;2023-07-13T07:17:39;494.13;;;266.90;;
8407;SDS011;4241;48.452;9.216;2023-07-13T07:20:07;492.67;;;264.63;;
8407;SDS011;4241;48.452;9.216;2023-07-13T07:22:36;491.90;;;265.17;;
8407;SDS011;4241;48.452;9.216;2023-07-13T07:25:03;495.53;;;270.67;;
8407;SDS011;4241;48.452;9.216;2023-07-13T07:27:30;493.83;;;270.70;;
8407;SDS011;4241;48.452;9.216;2023-07-13T07:29:57;493.83;;;271.63;;
8407;SDS011;4241;48.452;9.216;2023-07-13T07:32:24;494.20;;;274.67;;
8407;SDS011;4241;48.452;9.216;2023-07-13T07:34:51;494.87;;;276.67;;
8407;SDS011;4241;48.452;9.216;2023-07-13T07:37:18;495.73;;;280.93;;
8407;SDS011;4241;48.452;9.216;2023-07-13T07:39:46;496.17;;;282.03;;
8407;SDS011;4241;48.452;9.216;2023-07-13T07:42:13;496.00;;;282.20;;
8407;SDS011;4241;48.452;9.216;2023-07-13T07:44:40;496.37;;;284.73;;
8407;SDS011;4241;48.452;9.216;2023-07-13T07:47:07;496.43;;;282.57;;
8407;SDS011;4241;48.452;9.216;2023-07-13T07:49:35;495.03;;;282.63;;
8407;SDS011;4241;48.452;9.216;2023-07-13T07:52:02;497.00;;;286.00;;
8407;SDS011;4241;48.452;9.216;2023-07-13T07:54:29;498.10;;;290.10;;
8407;SDS011;4241;48.452;9.216;2023-07-13T07:56:57;496.97;;;288.30;;
8407;SDS011;4241;48.452;9.216;2023-07-13T07:59:24;497.23;;;289.40;;
8407;SDS011;4241;48.452;9.216;2023-07-13T08:01:51;499.07;;;296.90;;
8407;SDS011;4241;48.452;9.216;2023-07-13T08:04:18;499.00;;;296.17;;
8407;SDS011;4241;48.452;9.216;2023-07-13T08:06:45;501.40;;;299.17;;
8407;SDS011;4241;48.452;9.216;2023-07-13T08:09:12;499.90;;;301.03;;
8407;SDS011;4241;48.452;9.216;2023-07-13T08:11:38;500.40;;;303.27;;
8407;SDS011;4241;48.452;9.216;2023-07-13T08:14:07;501.03;;;304.53;;
8407;SDS011;4241;48.452;9.216;2023-07-13T08:16:34;499.80;;;304.87;;
8407;SDS011;4241;48.452;9.216;2023-07-13T08:19:01;502.03;;;311.57;;
8407;SDS011;4241;48.452;9.216;2023-07-13T08:21:29;501.77;;;315.53;;
8407;SDS011;4241;48.452;9.216;2023-07-13T08:23:56;500.30;;;314.90;;
8407;SDS011;4241;48.452;9.216;2023-07-13T08:26:23;502.67;;;319.13;;
8407;SDS011;4241;48.452;9.216;2023-07-13T08:28:50;502.83;;;321.17;;
8407;SDS011;4241;48.452;9.216;2023-07-13T08:31:18;504.43;;;326.07;;
8407;SDS011;4241;48.452;9.216;2023-07-13T08:33:44;502.13;;;323.20;;
8407;SDS011;4241;48.452;9.216;2023-07-13T08:36:11;503.87;;;327.27;;
8407;SDS011;4241;48.452;9.216;2023-07-13T08:38:38;502.63;;;324.27;;
8407;SDS011;4241;48.452;9.216;2023-07-13T08:41:09;503.57;;;330.43;;
8407;SDS011;4241;48.452;9.216;2023-07-13T08:43:38;503.57;;;327.50;;
8407;SDS011;4241;48.452;9.216;2023-07-13T08:46:08;504.30;;;330.93;;
8407;SDS011;4241;48.452;9.216;2023-07-13T08:48:41;502.30;;;329.97;;
8407;SDS011;4241;48.452;9.216;2023-07-13T08:51:12;500.93;;;330.77;;
8407;SDS011;4241;48.452;9.216;2023-07-13T08:53:49;504.70;;;336.10;;
8407;SDS011;4241;48.452;9.216;2023-07-13T08:56:21;503.07;;;333.20;;
8407;SDS011;4241;48.452;9.216;2023-07-13T08:58:49;506.40;;;335.33;;
8407;SDS011;4241;48.452;9.216;2023-07-13T09:01:22;500.63;;;327.63;;
8407;SDS011;4241;48.452;9.216;2023-07-13T09:03:56;502.47;;;329.57;;
8407;SDS011;4241;48.452;9.216;2023-07-13T09:06:31;501.87;;;334.57;;
8407;SDS011;4241;48.452;9.216;2023-07-13T09:09:06;502.07;;;335.00;;
8407;SDS011;4241;48.452;9.216;2023-07-13T09:11:41;502.90;;;339.57;;
8407;SDS011;4241;48.452;9.216;2023-07-13T09:14:20;502.40;;;339.20;;
8407;SDS011;4241;48.452;9.216;2023-07-13T09:16:58;506.47;;;348.60;;
8407;SDS011;4241;48.452;9.216;2023-07-13T09:19:28;509.40;;;357.47;;
8407;SDS011;4241;48.452;9.216;2023-07-13T09:21:57;507.50;;;352.43;;
8407;SDS011;4241;48.452;9.216;2023-07-13T09:24:28;506.97;;;351.13;;
8407;SDS011;4241;48.452;9.216;2023-07-13T09:27:01;507.03;;;349.80;;
8407;SDS011;4241;48.452;9.216;2023-07-13T09:29:31;506.97;;;353.57;;
8407;SDS011;4241;48.452;9.216;2023-07-13T09:32:00;509.93;;;359.63;;
8407;SDS011;4241;48.452;9.216;2023-07-13T09:34:31;511.97;;;363.73;;
8407;SDS011;4241;48.452;9.216;2023-07-13T09:36:59;510.10;;;358.73;;
8407;SDS011;4241;48.452;9.216;2023-07-13T09:39:27;508.77;;;361.47;;
8407;SDS011;4241;48.452;9.216;2023-07-13T09:41:57;510.13;;;361.40;;
8407;SDS011;4241;48.452;9.216;2023-07-13T09:44:30;509.37;;;364.40;;
8407;SDS011;4241;48.452;9.216;2023-07-13T09:47:00;510.60;;;364.57;;
8407;SDS011;4241;48.452;9.216;2023-07-13T09:49:28;513.17;;;371.80;;
8407;SDS011;4241;48.452;9.216;2023-07-13T09:52:05;513.70;;;374.90;;
8407;SDS011;4241;48.452;9.216;2023-07-13T09:54:36;514.10;;;383.57;;
8407;SDS011;4241;48.452;9.216;2023-07-13T09:57:10;512.63;;;381.47;;
8407;SDS011;4241;48.452;9.216;2023-07-13T09:59:40;511.57;;;378.30;;
8407;SDS011;4241;48.452;9.216;2023-07-13T10:04:56;514.27;;;383.10;;
8407;SDS011;4241;48.452;9.216;2023-07-13T10:07:26;514.40;;;382.70;;
8407;SDS011;4241;48.452;9.216;2023-07-13T10:09:53;512.57;;;377.93;;
8407;SDS011;4241;48.452;9.216;2023-07-13T10:12:20;512.00;;;379.53;;
8407;SDS011;4241;48.452;9.216;2023-07-13T10:14:50;513.63;;;380.03;;
8407;SDS011;4241;48.452;9.216;2023-07-13T10:17:18;511.87;;;379.00;;
8407;SDS011;4241;48.452;9.216;2023-07-13T10:19:55;514.63;;;384.73;;
8407;SDS011;4241;48.452;9.216;2023-07-13T10:22:31;515.57;;;392.57;;
8407;SDS011;4241;48.452;9.216;2023-07-13T10:25:10;514.87;;;386.03;;
8407;SDS011;4241;48.452;9.216;2023-07-13T10:27:43;515.83;;;391.73;;
8407;SDS011;4241;48.452;9.216;2023-07-13T10:30:13;512.43;;;385.87;;
8407;SDS011;4241;48.452;9.216;2023-07-13T10:32:44;512.87;;;385.40;;
8407;SDS011;4241;48.452;9.216;2023-07-13T10:35:14;513.93;;;385.40;;
8407;SDS011;4241;48.452;9.216;2023-07-13T10:37:45;513.23;;;384.03;;
8407;SDS011;4241;48.452;9.216;2023-07-13T10:40:18;511.90;;;378.67;;
8407;SDS011;4241;48.452;9.216;2023-07-13T10:42:49;514.43;;;378.73;;
8407;SDS011;4241;48.452;9.216;2023-07-13T10:45:19;513.80;;;377.90;;
8407;SDS011;4241;48.452;9.216;2023-07-13T10:47:49;511.43;;;375.67;;
8407;SDS011;4241;48.452;9.216;2023-07-13T10:50:19;512.20;;;377.37;;
8407;SDS011;4241;48.452;9.216;2023-07-13T10:52:52;511.83;;;376.73;;
8407;SDS011;4241;48.452;9.216;2023-07-13T10:55:31;516.93;;;379.37;;
8407;SDS011;4241;48.452;9.216;2023-07-13T10:58:01;508.80;;;367.90;;
8407;SDS011;4241;48.452;9.216;2023-07-13T11:00:30;510.27;;;372.17;;
8407;SDS011;4241;48.452;9.216;2023-07-13T11:02:59;510.77;;;371.47;;
8407;SDS011;4241;48.452;9.216;2023-07-13T11:05:28;512.87;;;373.20;;
8407;SDS011;4241;48.452;9.216;2023-07-13T11:08:11;511.83;;;375.80;;
8407;SDS011;4241;48.452;9.216;2023-07-13T11:10:52;501.93;;;372.50;;
8407;SDS011;4241;48.452;9.216;2023-07-13T11:13:36;513.70;;;391.17;;
8407;SDS011;4241;48.452;9.216;2023-07-13T11:16:26;516.17;;;395.47;;
8407;SDS011;4241;48.452;9.216;2023-07-13T11:22:13;518.57;;;399.07;;
8407;SDS011;4241;48.452;9.216;2023-07-13T11:25:01;515.40;;;396.47;;
8407;SDS011;4241;48.452;9.216;2023-07-13T11:27:49;515.17;;;396.53;;
8407;SDS011;4241;48.452;9.216;2023-07-13T11:30:21;515.80;;;404.83;;
8407;SDS011;4241;48.452;9.216;2023-07-13T11:33:02;515.40;;;399.27;;
8407;SDS011;4241;48.452;9.216;2023-07-13T11:35:38;520.27;;;412.67;;
8407;SDS011;4241;48.452;9.216;2023-07-13T11:38:12;516.93;;;404.67;;
8407;SDS011;4241;48.452;9.216;2023-07-13T11:40:44;518.83;;;412.63;;
8407;SDS011;4241;48.452;9.216;2023-07-13T11:43:12;514.63;;;398.30;;
8407;SDS011;4241;48.452;9.216;2023-07-13T11:45:41;517.17;;;403.47;;
8407;SDS011;4241;48.452;9.216;2023-07-13T11:48:19;516.03;;;397.80;;
8407;SDS011;4241;48.452;9.216;2023-07-13T11:50:51;515.17;;;391.70;;
8407;SDS011;4241;48.452;9.216;2023-07-13T11:53:22;517.03;;;393.13;;
8407;SDS011;4241;48.452;9.216;2023-07-13T11:55:53;514.53;;;388.23;;
8407;SDS011;4241;48.452;9.216;2023-07-13T11:58:24;515.70;;;390.50;;
8407;SDS011;4241;48.452;9.216;2023-07-13T12:00:53;515.63;;;386.70;;
8407;SDS011;4241;48.452;9.216;2023-07-13T12:03:24;516.73;;;391.37;;
8407;SDS011;4241;48.452;9.216;2023-07-13T12:05:55;516.07;;;386.87;;
8407;SDS011;4241;48.452;9.216;2023-07-13T12:08:23;516.73;;;385.23;;
8407;SDS011;4241;48.452;9.216;2023-07-13T12:10:58;513.67;;;380.13;;
8407;SDS011;4241;48.452;9.216;2023-07-13T12:13:26;514.83;;;384.53;;
8407;SDS011;4241;48.452;9.216;2023-07-13T12:15:56;514.27;;;389.63;;
8407;SDS011;4241;48.452;9.216;2023-07-13T12:18:23;516.37;;;395.73;;
8407;SDS011;4241;48.452;9.216;2023-07-13T12:20:57;517.20;;;400.20;;
8407;SDS011;4241;48.452;9.216;2023-07-13T12:23:33;518.40;;;408.37;;
8407;SDS011;4241;48.452;9.216;2023-07-13T12:26:03;519.33;;;409.00;;
8407;SDS011;4241;48.452;9.216;2023-07-13T12:28:32;519.13;;;413.87;;
8407;SDS011;4241;48.452;9.216;2023-07-13T12:31:02;519.03;;;416.48;;
8407;SDS011;4241;48.452;9.216;2023-07-13T12:33:32;525.85;;;436.25;;
8407;SDS011;4241;48.452;9.216;2023-07-13T12:36:03;521.30;;;434.40;;
8407;SDS011;4241;48.452;9.216;2023-07-13T12:38:32;523.55;;;436.52;;
8407;SDS011;4241;48.452;9.216;2023-07-13T12:40:59;524.10;;;442.30;;
8407;SDS011;4241;48.452;9.216;2023-07-13T12:43:30;522.17;;;431.60;;
8407;SDS011;4241;48.452;9.216;2023-07-13T12:46:04;524.08;;;431.38;;
8407;SDS011;4241;48.452;9.216;2023-07-13T12:48:41;520.60;;;421.38;;
8407;SDS011;4241;48.452;9.216;2023-07-13T12:51:10;520.90;;;413.05;;
8407;SDS011;4241;48.452;9.216;2023-07-13T12:53:38;524.57;;;418.23;;
8407;SDS011;4241;48.452;9.216;2023-07-13T12:56:11;522.20;;;410.80;;
8407;SDS011;4241;48.452;9.216;2023-07-13T12:58:44;515.80;;;403.93;;
8407;SDS011;4241;48.452;9.216;2023-07-13T13:01:19;517.00;;;406.90;;
8407;SDS011;4241;48.452;9.216;2023-07-13T13:03:49;517.23;;;407.40;;
8407;SDS011;4241;48.452;9.216;2023-07-13T13:06:21;515.47;;;407.38;;
8407;SDS011;4241;48.452;9.216;2023-07-13T13:08:50;517.22;;;407.63;;
8407;SDS011;4241;48.452;9.216;2023-07-13T13:11:19;516.30;;;405.93;;
8407;SDS011;4241;48.452;9.216;2023-07-13T13:13:48;515.93;;;397.63;;
8407;SDS011;4241;48.452;9.216;2023-07-13T13:16:17;515.80;;;398.03;;
8407;SDS011;4241;48.452;9.216;2023-07-13T13:18:46;513.73;;;389.33;;
8407;SDS011;4241;48.452;9.216;2023-07-13T13:21:13;516.67;;;396.73;;
8407;SDS011;4241;48.452;9.216;2023-07-13T13:23:40;514.87;;;391.83;;
8407;SDS011;4241;48.452;9.216;2023-07-13T13:26:10;515.30;;;391.87;;
8407;SDS011;4241;48.452;9.216;2023-07-13T13:28:39;515.00;;;389.53;;
8407;SDS011;4241;48.452;9.216;2023-07-13T13:31:07;512.70;;;385.37;;
8407;SDS011;4241;48.452;9.216;2023-07-13T13:33:37;516.90;;;399.47;;
8407;SDS011;4241;48.452;9.216;2023-07-13T13:36:08;514.83;;;390.37;;
8407;SDS011;4241;48.452;9.216;2023-07-13T13:38:40;514.60;;;392.20;;
8407;SDS011;4241;48.452;9.216;2023-07-13T13:41:07;514.97;;;387.50;;
8407;SDS011;4241;48.452;9.216;2023-07-13T13:43:35;513.87;;;384.60;;
8407;SDS011;4241;48.452;9.216;2023-07-13T13:46:05;515.43;;;391.30;;
8407;SDS011;4241;48.452;9.216;2023-07-13T13:48:40;515.73;;;392.20;;
8407;SDS011;4241;48.452;9.216;2023-07-13T13:51:11;515.20;;;387.87;;
8407;SDS011;4241;48.452;9.216;2023-07-13T13:53:40;515.30;;;391.17;;
8407;SDS011;4241;48.452;9.216;2023-07-13T13:56:07;515.27;;;392.73;;
8407;SDS011;4241;48.452;9.216;2023-07-13T13:58:34;515.80;;;390.03;;
8407;SDS011;4241;48.452;9.216;2023-07-13T14:01:01;514.57;;;387.73;;
8407;SDS011;4241;48.452;9.216;2023-07-13T14:03:33;512.50;;;386.90;;
8407;SDS011;4241;48.452;9.216;2023-07-13T14:06:00;512.13;;;382.83;;
8407;SDS011;4241;48.452;9.216;2023-07-13T14:08:27;513.87;;;380.63;;
8407;SDS011;4241;48.452;9.216;2023-07-13T14:10:54;514.20;;;388.17;;
8407;SDS011;4241;48.452;9.216;2023-07-13T14:13:24;515.87;;;387.47;;
8407;SDS011;4241;48.452;9.216;2023-07-13T14:15:53;513.80;;;388.73;;
8407;SDS011;4241;48.452;9.216;2023-07-13T14:18:22;517.37;;;395.53;;
8407;SDS011;4241;48.452;9.216;2023-07-13T14:20:49;515.67;;;399.77;;
8407;SDS011;4241;48.452;9.216;2023-07-13T14:23:17;515.77;;;401.70;;
8407;SDS011;4241;48.452;9.216;2023-07-13T14:25:44;518.83;;;402.70;;
8407;SDS011;4241;48.452;9.216;2023-07-13T14:28:17;515.43;;;397.07;;
8407;SDS011;4241;48.452;9.216;2023-07-13T14:30:47;515.10;;;399.17;;
8407;SDS011;4241;48.452;9.216;2023-07-13T14:33:14;515.83;;;405.57;;
8407;SDS011;4241;48.452;9.216;2023-07-13T14:35:42;519.83;;;407.20;;
8407;SDS011;4241;48.452;9.216;2023-07-13T14:38:10;521.47;;;407.95;;
8407;SDS011;4241;48.452;9.216;2023-07-13T14:40:39;514.03;;;393.60;;